Main page
METAR-TAF:

METAR-TAF

Airports :

Leuchars Station

Leuchars, Scotland

latitude: 56-23N, longitude: 002-52W, elevation: 12 m

Current weather observation

The report was made 20 minutes ago, at 05:50 UTC
Wind 10 kt from the West/Southwest
Temperature 1°C
Humidity 93%
Pressure 1015 hPa
Visibility 10 km or more
no clouds below 1500 m and no cumulonimbus

METAR: EGQL 170550Z 25010KT CAVOK 01/00 Q1015 RMK BLU

Time: 06:10 (06:10 UTC)

Forecast

The report was made 1 hour and 39 minutes ago, at 04:31 UTC
Forecast valid from 17 at 06 UTC to 17 at 15 UTC
Wind 12 kt from the West/Southwest
Visibility 10 km or more
Few clouds at a height of 4500 ft
Probability 40% :
Temporary
from 17 at 14 UTC to 17 at 15 UTC
Wind 20 kt from the West/Southwest with gusts up to 30 kt

TAF: EGQL 170431Z 1706/1715 25012KT 9999 FEW045 PROB40 TEMPO 1714/1715 25020G30KT

Weather observations and forecasts of more than 4000 airports (METAR and TAF reports).

The available stations are represented by yellow and red dots on the map.

Hover mouse over dot to see the name of the station.

Then click to see weather observations and forecasts.

To change the map : click on the green buttons with a black cross to zoom in, on the green button with a dash to zoom out, or on the green arrows for adjacent maps.


METAR-TAF: